sensor_id;sensor_type;location;lat;lon;timestamp;temperature;humidity
70267;DHT22;57676;43.856;1.926;2022-10-03T00:04:19;14.00;99.90
70267;DHT22;57676;43.856;1.926;2022-10-03T00:07:01;14.10;99.90
70267;DHT22;57676;43.856;1.926;2022-10-03T00:15:42;13.90;99.90
70267;DHT22;57676;43.856;1.926;2022-10-03T00:24:21;13.60;99.90
70267;DHT22;57676;43.856;1.926;2022-10-03T00:27:13;13.60;99.90
70267;DHT22;57676;43.856;1.926;2022-10-03T00:29:54;13.70;99.90
70267;DHT22;57676;43.856;1.926;2022-10-03T00:35:42;13.60;99.90
70267;DHT22;57676;43.856;1.926;2022-10-03T00:41:34;13.70;99.90
70267;DHT22;57676;43.856;1.926;2022-10-03T00:47:39;13.60;99.90
70267;DHT22;57676;43.856;1.926;2022-10-03T00:50:23;13.50;99.90
70267;DHT22;57676;43.856;1.926;2022-10-03T00:59:09;13.50;99.90
70267;DHT22;57676;43.856;1.926;2022-10-03T01:01:45;13.60;99.90
70267;DHT22;57676;43.856;1.926;2022-10-03T01:04:40;13.60;99.90
70267;DHT22;57676;43.856;1.926;2022-10-03T01:07:34;13.60;99.90
70267;DHT22;57676;43.856;1.926;2022-10-03T01:10:20;13.60;99.90
70267;DHT22;57676;43.856;1.926;2022-10-03T01:13:13;13.60;99.90
70267;DHT22;57676;43.856;1.926;2022-10-03T01:15:51;13.60;99.90
70267;DHT22;57676;43.856;1.926;2022-10-03T01:18:50;13.50;99.90
70267;DHT22;57676;43.856;1.926;2022-10-03T01:21:31;13.60;99.90
70267;DHT22;57676;43.856;1.926;2022-10-03T01:27:00;13.70;99.90
70267;DHT22;57676;43.856;1.926;2022-10-03T01:29:51;13.90;99.90
70267;DHT22;57676;43.856;1.926;2022-10-03T01:33:01;13.90;99.90
70267;DHT22;57676;43.856;1.926;2022-10-03T01:38:39;13.70;99.90
70267;DHT22;57676;43.856;1.926;2022-10-03T01:41:15;13.60;99.90
70267;DHT22;57676;43.856;1.926;2022-10-03T01:43:53;13.40;99.90
70267;DHT22;57676;43.856;1.926;2022-10-03T01:46:32;13.30;99.90
70267;DHT22;57676;43.856;1.926;2022-10-03T01:49:22;13.30;99.90
70267;DHT22;57676;43.856;1.926;2022-10-03T01:51:59;13.30;99.90
70267;DHT22;57676;43.856;1.926;2022-10-03T01:54:49;13.30;99.90
70267;DHT22;57676;43.856;1.926;2022-10-03T02:00:18;13.60;99.90
70267;DHT22;57676;43.856;1.926;2022-10-03T02:02:53;13.60;99.90
70267;DHT22;57676;43.856;1.926;2022-10-03T02:11:38;13.70;99.90
70267;DHT22;57676;43.856;1.926;2022-10-03T02:14:31;13.50;99.90
70267;DHT22;57676;43.856;1.926;2022-10-03T02:22:58;13.30;99.90
70267;DHT22;57676;43.856;1.926;2022-10-03T02:28:27;13.20;99.90
70267;DHT22;57676;43.856;1.926;2022-10-03T02:31:24;13.20;99.90
70267;DHT22;57676;43.856;1.926;2022-10-03T02:43:53;13.30;99.90
70267;DHT22;57676;43.856;1.926;2022-10-03T02:56:23;13.50;99.90
70267;DHT22;57676;43.856;1.926;2022-10-03T03:02:12;13.60;99.90
70267;DHT22;57676;43.856;1.926;2022-10-03T03:08:12;13.60;99.90
70267;DHT22;57676;43.856;1.926;2022-10-03T03:11:15;13.60;99.90
70267;DHT22;57676;43.856;1.926;2022-10-03T03:14:11;13.70;99.90
70267;DHT22;57676;43.856;1.926;2022-10-03T03:26:20;13.90;99.90
70267;DHT22;57676;43.856;1.926;2022-10-03T03:29:00;13.90;99.90
70267;DHT22;57676;43.856;1.926;2022-10-03T03:31:37;14.00;99.90
70267;DHT22;57676;43.856;1.926;2022-10-03T03:34:30;14.00;99.90
70267;DHT22;57676;43.856;1.926;2022-10-03T03:37:09;14.00;99.90
70267;DHT22;57676;43.856;1.926;2022-10-03T03:40:02;14.00;99.90
70267;DHT22;57676;43.856;1.926;2022-10-03T03:42:41;13.90;99.90
70267;DHT22;57676;43.856;1.926;2022-10-03T03:54:37;13.80;99.90
70267;DHT22;57676;43.856;1.926;2022-10-03T03:57:35;13.80;99.90
70267;DHT22;57676;43.856;1.926;2022-10-03T04:06:11;13.60;99.90
70267;DHT22;57676;43.856;1.926;2022-10-03T04:18:01;13.30;99.90
70267;DHT22;57676;43.856;1.926;2022-10-03T04:20:59;13.30;99.90
70267;DHT22;57676;43.856;1.926;2022-10-03T04:26:56;13.20;99.90
70267;DHT22;57676;43.856;1.926;2022-10-03T04:29:45;13.20;99.90
70267;DHT22;57676;43.856;1.926;2022-10-03T04:32:39;13.10;99.90
70267;DHT22;57676;43.856;1.926;2022-10-03T04:41:45;13.10;99.90
70267;DHT22;57676;43.856;1.926;2022-10-03T04:47:15;12.90;99.90
70267;DHT22;57676;43.856;1.926;2022-10-03T04:49:57;12.90;99.90
70267;DHT22;57676;43.856;1.926;2022-10-03T04:52:40;12.90;99.90
70267;DHT22;57676;43.856;1.926;2022-10-03T04:55:29;12.80;99.90
70267;DHT22;57676;43.856;1.926;2022-10-03T04:58:42;12.90;99.90
70267;DHT22;57676;43.856;1.926;2022-10-03T05:01:32;12.80;99.90
70267;DHT22;57676;43.856;1.926;2022-10-03T05:07:00;12.80;99.90
70267;DHT22;57676;43.856;1.926;2022-10-03T05:12:46;12.70;99.90
70267;DHT22;57676;43.856;1.926;2022-10-03T05:15:38;12.70;99.90
70267;DHT22;57676;43.856;1.926;2022-10-03T05:21:21;12.50;99.90
70267;DHT22;57676;43.856;1.926;2022-10-03T05:24:13;12.60;99.90
70267;DHT22;57676;43.856;1.926;2022-10-03T05:29:56;12.50;99.90
70267;DHT22;57676;43.856;1.926;2022-10-03T05:32:46;12.40;99.90
70267;DHT22;57676;43.856;1.926;2022-10-03T05:35:40;12.40;99.90
70267;DHT22;57676;43.856;1.926;2022-10-03T05:38:32;12.40;99.90
70267;DHT22;57676;43.856;1.926;2022-10-03T05:41:25;12.30;99.90
70267;DHT22;57676;43.856;1.926;2022-10-03T05:44:14;12.30;99.90
70267;DHT22;57676;43.856;1.926;2022-10-03T05:47:07;12.30;99.90
70267;DHT22;57676;43.856;1.926;2022-10-03T05:50:07;12.30;99.90
70267;DHT22;57676;43.856;1.926;2022-10-03T05:52:58;12.30;99.90
70267;DHT22;57676;43.856;1.926;2022-10-03T06:01:37;12.30;99.90
70267;DHT22;57676;43.856;1.926;2022-10-03T06:10:30;12.60;99.90
70267;DHT22;57676;43.856;1.926;2022-10-03T06:16:25;12.70;99.90
70267;DHT22;57676;43.856;1.926;2022-10-03T06:25:15;12.80;99.90
70267;DHT22;57676;43.856;1.926;2022-10-03T06:28:07;12.80;99.90
70267;DHT22;57676;43.856;1.926;2022-10-03T06:37:09;13.00;99.90
70267;DHT22;57676;43.856;1.926;2022-10-03T06:40:08;13.00;99.90
70267;DHT22;57676;43.856;1.926;2022-10-03T06:43:04;13.10;99.90
70267;DHT22;57676;43.856;1.926;2022-10-03T06:46:00;13.10;99.90
70267;DHT22;57676;43.856;1.926;2022-10-03T06:48:53;13.30;99.90
70267;DHT22;57676;43.856;1.926;2022-10-03T06:51:48;13.40;99.90
70267;DHT22;57676;43.856;1.926;2022-10-03T06:54:47;13.50;99.90
70267;DHT22;57676;43.856;1.926;2022-10-03T06:57:45;13.50;99.90
70267;DHT22;57676;43.856;1.926;2022-10-03T07:00:20;13.60;99.90
70267;DHT22;57676;43.856;1.926;2022-10-03T07:03:31;13.70;99.90
70267;DHT22;57676;43.856;1.926;2022-10-03T07:12:24;14.60;99.90
70267;DHT22;57676;43.856;1.926;2022-10-03T07:15:37;15.60;99.90
70267;DHT22;57676;43.856;1.926;2022-10-03T07:18:31;16.10;99.90
70267;DHT22;57676;43.856;1.926;2022-10-03T07:27:18;15.50;99.90
70267;DHT22;57676;43.856;1.926;2022-10-03T07:48:32;15.90;99.90
70267;DHT22;57676;43.856;1.926;2022-10-03T08:00:14;15.90;99.90
70267;DHT22;57676;43.856;1.926;2022-10-03T08:06:02;16.50;99.90
70267;DHT22;57676;43.856;1.926;2022-10-03T08:14:41;17.10;99.90
70267;DHT22;57676;43.856;1.926;2022-10-03T08:53:35;17.70;99.90
70267;DHT22;57676;43.856;1.926;2022-10-03T08:56:16;17.70;99.90
70267;DHT22;57676;43.856;1.926;2022-10-03T08:59:13;17.70;99.90
70267;DHT22;57676;43.856;1.926;2022-10-03T09:08:05;18.00;99.90
70267;DHT22;57676;43.856;1.926;2022-10-03T09:11:01;18.10;99.90
70267;DHT22;57676;43.856;1.926;2022-10-03T09:17:03;18.40;99.90
70267;DHT22;57676;43.856;1.926;2022-10-03T09:22:58;18.00;99.90
70267;DHT22;57676;43.856;1.926;2022-10-03T09:31:37;18.00;99.90
70267;DHT22;57676;43.856;1.926;2022-10-03T09:40:40;17.70;99.90
70267;DHT22;57676;43.856;1.926;2022-10-03T10:05:30;18.30;99.90
70267;DHT22;57676;43.856;1.926;2022-10-03T10:14:51;19.00;99.90
70267;DHT22;57676;43.856;1.926;2022-10-03T10:17:46;19.10;99.90
70267;DHT22;57676;43.856;1.926;2022-10-03T10:20:43;19.20;99.90
70267;DHT22;57676;43.856;1.926;2022-10-03T10:23:32;19.20;99.90
70267;DHT22;57676;43.856;1.926;2022-10-03T10:29:21;19.50;99.90
70267;DHT22;57676;43.856;1.926;2022-10-03T10:38:24;19.60;99.90
70267;DHT22;57676;43.856;1.926;2022-10-03T10:41:19;19.70;99.90
70267;DHT22;57676;43.856;1.926;2022-10-03T10:50:26;20.00;99.90
70267;DHT22;57676;43.856;1.926;2022-10-03T10:56:34;20.10;99.90
70267;DHT22;57676;43.856;1.926;2022-10-03T10:59:36;20.30;99.90
70267;DHT22;57676;43.856;1.926;2022-10-03T11:08:49;20.60;99.90
70267;DHT22;57676;43.856;1.926;2022-10-03T11:11:47;20.60;99.90
70267;DHT22;57676;43.856;1.926;2022-10-03T11:17:44;20.70;99.90
70267;DHT22;57676;43.856;1.926;2022-10-03T11:23:41;20.80;99.90
70267;DHT22;57676;43.856;1.926;2022-10-03T11:26:38;20.80;99.60
70267;DHT22;57676;43.856;1.926;2022-10-03T11:29:49;20.90;98.90
70267;DHT22;57676;43.856;1.926;2022-10-03T11:35:42;20.90;99.70
70267;DHT22;57676;43.856;1.926;2022-10-03T11:44:18;21.10;99.80
70267;DHT22;57676;43.856;1.926;2022-10-03T11:53:09;21.20;99.10
70267;DHT22;57676;43.856;1.926;2022-10-03T11:55:41;21.30;98.50
70267;DHT22;57676;43.856;1.926;2022-10-03T12:01:38;21.30;98.30
70267;DHT22;57676;43.856;1.926;2022-10-03T12:04:27;21.40;96.80
70267;DHT22;57676;43.856;1.926;2022-10-03T12:07:24;21.50;98.10
70267;DHT22;57676;43.856;1.926;2022-10-03T12:13:16;21.60;97.30
70267;DHT22;57676;43.856;1.926;2022-10-03T12:15:45;21.70;96.50
70267;DHT22;57676;43.856;1.926;2022-10-03T12:24:30;21.90;96.00
70267;DHT22;57676;43.856;1.926;2022-10-03T12:27:02;21.90;96.00
70267;DHT22;57676;43.856;1.926;2022-10-03T12:29:34;21.90;95.50
70267;DHT22;57676;43.856;1.926;2022-10-03T12:35:20;22.10;95.60
70267;DHT22;57676;43.856;1.926;2022-10-03T12:38:02;22.20;95.50
70267;DHT22;57676;43.856;1.926;2022-10-03T12:40:39;22.10;95.70
70267;DHT22;57676;43.856;1.926;2022-10-03T12:46:15;22.20;95.10
70267;DHT22;57676;43.856;1.926;2022-10-03T12:48:58;22.50;95.40
70267;DHT22;57676;43.856;1.926;2022-10-03T12:51:50;22.70;99.90
70267;DHT22;57676;43.856;1.926;2022-10-03T12:57:44;23.10;99.90
70267;DHT22;57676;43.856;1.926;2022-10-03T13:00:21;22.80;99.90
70267;DHT22;57676;43.856;1.926;2022-10-03T13:24:18;22.50;99.90
70267;DHT22;57676;43.856;1.926;2022-10-03T13:30:04;22.70;99.90
70267;DHT22;57676;43.856;1.926;2022-10-03T13:32:36;22.80;99.90
70267;DHT22;57676;43.856;1.926;2022-10-03T13:44:20;22.70;99.90
70267;DHT22;57676;43.856;1.926;2022-10-03T13:49:51;22.60;98.70
70267;DHT22;57676;43.856;1.926;2022-10-03T13:52:37;22.90;99.00
70267;DHT22;57676;43.856;1.926;2022-10-03T13:55:26;22.70;98.70
70267;DHT22;57676;43.856;1.926;2022-10-03T14:16:12;22.70;97.60
70267;DHT22;57676;43.856;1.926;2022-10-03T14:19:14;22.80;97.40
70267;DHT22;57676;43.856;1.926;2022-10-03T14:25:10;22.70;97.50
70267;DHT22;57676;43.856;1.926;2022-10-03T14:27:46;22.60;96.80
70267;DHT22;57676;43.856;1.926;2022-10-03T14:33:24;22.80;97.00
70267;DHT22;57676;43.856;1.926;2022-10-03T14:36:18;22.70;95.70
70267;DHT22;57676;43.856;1.926;2022-10-03T14:39:14;22.70;95.50
70267;DHT22;57676;43.856;1.926;2022-10-03T14:44:59;22.90;95.90
70267;DHT22;57676;43.856;1.926;2022-10-03T14:47:33;22.90;96.60
70267;DHT22;57676;43.856;1.926;2022-10-03T14:50:00;23.00;95.30
70267;DHT22;57676;43.856;1.926;2022-10-03T14:55:20;22.90;91.10
70267;DHT22;57676;43.856;1.926;2022-10-03T14:57:57;23.00;91.50
70267;DHT22;57676;43.856;1.926;2022-10-03T15:00:37;23.00;90.50
70267;DHT22;57676;43.856;1.926;2022-10-03T15:03:27;22.90;90.90
70267;DHT22;57676;43.856;1.926;2022-10-03T15:06:17;22.90;91.20
70267;DHT22;57676;43.856;1.926;2022-10-03T15:08:48;22.90;91.00
70267;DHT22;57676;43.856;1.926;2022-10-03T15:11:16;22.90;91.00
70267;DHT22;57676;43.856;1.926;2022-10-03T15:13:54;22.80;91.10
70267;DHT22;57676;43.856;1.926;2022-10-03T15:16:22;22.80;90.40
70267;DHT22;57676;43.856;1.926;2022-10-03T15:18:53;22.80;90.70
70267;DHT22;57676;43.856;1.926;2022-10-03T15:21:23;22.80;90.80
70267;DHT22;57676;43.856;1.926;2022-10-03T15:23:56;22.80;90.80
70267;DHT22;57676;43.856;1.926;2022-10-03T15:26:26;22.90;90.80
70267;DHT22;57676;43.856;1.926;2022-10-03T15:28:56;22.80;91.50
70267;DHT22;57676;43.856;1.926;2022-10-03T15:34:18;22.70;90.90
70267;DHT22;57676;43.856;1.926;2022-10-03T15:36:49;22.80;91.70
70267;DHT22;57676;43.856;1.926;2022-10-03T15:39:31;22.80;91.30
70267;DHT22;57676;43.856;1.926;2022-10-03T15:44:54;22.80;90.00
70267;DHT22;57676;43.856;1.926;2022-10-03T15:47:25;22.80;88.20
70267;DHT22;57676;43.856;1.926;2022-10-03T15:50:16;22.70;88.80
70267;DHT22;57676;43.856;1.926;2022-10-03T15:53:06;22.70;89.60
70267;DHT22;57676;43.856;1.926;2022-10-03T15:55:40;22.70;87.60
70267;DHT22;57676;43.856;1.926;2022-10-03T15:58:22;22.60;87.20
70267;DHT22;57676;43.856;1.926;2022-10-03T16:01:01;22.60;87.30
70267;DHT22;57676;43.856;1.926;2022-10-03T16:09:25;22.50;87.10
70267;DHT22;57676;43.856;1.926;2022-10-03T16:14:48;22.40;88.40
70267;DHT22;57676;43.856;1.926;2022-10-03T16:17:24;22.30;87.60
70267;DHT22;57676;43.856;1.926;2022-10-03T16:19:57;22.30;88.40
70267;DHT22;57676;43.856;1.926;2022-10-03T16:22:34;22.30;87.50
70267;DHT22;57676;43.856;1.926;2022-10-03T16:25:12;22.20;89.70
70267;DHT22;57676;43.856;1.926;2022-10-03T16:27:46;22.10;90.60
70267;DHT22;57676;43.856;1.926;2022-10-03T16:30:20;22.00;89.20
70267;DHT22;57676;43.856;1.926;2022-10-03T16:32:55;22.00;88.70
70267;DHT22;57676;43.856;1.926;2022-10-03T16:35:42;21.90;90.20
70267;DHT22;57676;43.856;1.926;2022-10-03T16:38:24;21.90;88.70
70267;DHT22;57676;43.856;1.926;2022-10-03T16:40:56;21.80;88.50
70267;DHT22;57676;43.856;1.926;2022-10-03T16:43:23;21.70;88.90
70267;DHT22;57676;43.856;1.926;2022-10-03T16:45:51;21.60;88.50
70267;DHT22;57676;43.856;1.926;2022-10-03T16:48:22;21.40;89.90
70267;DHT22;57676;43.856;1.926;2022-10-03T16:51:35;21.30;90.40
70267;DHT22;57676;43.856;1.926;2022-10-03T16:54:02;21.20;90.10
70267;DHT22;57676;43.856;1.926;2022-10-03T16:56:34;21.10;90.80
70267;DHT22;57676;43.856;1.926;2022-10-03T16:59:10;21.00;90.10
70267;DHT22;57676;43.856;1.926;2022-10-03T17:01:41;20.90;91.10
70267;DHT22;57676;43.856;1.926;2022-10-03T17:07:03;20.70;91.20
70267;DHT22;57676;43.856;1.926;2022-10-03T17:09:38;20.60;92.10
70267;DHT22;57676;43.856;1.926;2022-10-03T17:12:16;20.50;92.20
70267;DHT22;57676;43.856;1.926;2022-10-03T17:14:42;20.30;92.20
70267;DHT22;57676;43.856;1.926;2022-10-03T17:17:43;20.20;92.60
70267;DHT22;57676;43.856;1.926;2022-10-03T17:20:17;20.10;92.90
70267;DHT22;57676;43.856;1.926;2022-10-03T17:25:57;19.80;93.30
70267;DHT22;57676;43.856;1.926;2022-10-03T17:28:32;19.70;93.30
70267;DHT22;57676;43.856;1.926;2022-10-03T17:31:04;19.60;93.70
70267;DHT22;57676;43.856;1.926;2022-10-03T17:37:13;19.40;94.40
70267;DHT22;57676;43.856;1.926;2022-10-03T17:39:49;19.30;94.50
70267;DHT22;57676;43.856;1.926;2022-10-03T17:42:30;19.20;94.70
70267;DHT22;57676;43.856;1.926;2022-10-03T17:48:29;18.90;96.00
70267;DHT22;57676;43.856;1.926;2022-10-03T17:54:12;18.90;99.00
70267;DHT22;57676;43.856;1.926;2022-10-03T17:56:46;18.70;99.70
70267;DHT22;57676;43.856;1.926;2022-10-03T17:59:18;18.60;99.90
70267;DHT22;57676;43.856;1.926;2022-10-03T18:01:50;18.40;99.90
70267;DHT22;57676;43.856;1.926;2022-10-03T18:04:20;18.20;99.90
70267;DHT22;57676;43.856;1.926;2022-10-03T18:06:56;18.10;99.90
70267;DHT22;57676;43.856;1.926;2022-10-03T18:09:28;18.10;99.90
70267;DHT22;57676;43.856;1.926;2022-10-03T18:12:07;17.90;99.90
70267;DHT22;57676;43.856;1.926;2022-10-03T18:26:44;17.40;99.90
70267;DHT22;57676;43.856;1.926;2022-10-03T18:29:33;17.30;99.90
70267;DHT22;57676;43.856;1.926;2022-10-03T18:32:15;17.30;99.90
70267;DHT22;57676;43.856;1.926;2022-10-03T18:34:48;17.20;99.90
70267;DHT22;57676;43.856;1.926;2022-10-03T18:40:28;16.90;99.90
70267;DHT22;57676;43.856;1.926;2022-10-03T18:42:55;16.90;99.90
70267;DHT22;57676;43.856;1.926;2022-10-03T18:45:42;16.90;99.90
70267;DHT22;57676;43.856;1.926;2022-10-03T18:48:12;16.60;99.90
70267;DHT22;57676;43.856;1.926;2022-10-03T18:51:08;16.60;99.90
70267;DHT22;57676;43.856;1.926;2022-10-03T18:53:38;16.50;99.90
70267;DHT22;57676;43.856;1.926;2022-10-03T18:56:11;16.40;99.90
70267;DHT22;57676;43.856;1.926;2022-10-03T18:58:42;16.40;99.90
70267;DHT22;57676;43.856;1.926;2022-10-03T19:04:17;16.20;99.90
70267;DHT22;57676;43.856;1.926;2022-10-03T19:06:49;16.10;99.90
70267;DHT22;57676;43.856;1.926;2022-10-03T19:09:26;16.10;99.90
70267;DHT22;57676;43.856;1.926;2022-10-03T19:15:10;16.00;99.90
70267;DHT22;57676;43.856;1.926;2022-10-03T19:17:58;16.00;99.90
70267;DHT22;57676;43.856;1.926;2022-10-03T19:20:36;15.90;99.90
70267;DHT22;57676;43.856;1.926;2022-10-03T19:23:10;15.90;99.90
70267;DHT22;57676;43.856;1.926;2022-10-03T19:25:39;15.80;99.90
70267;DHT22;57676;43.856;1.926;2022-10-03T19:28:24;15.70;99.90
70267;DHT22;57676;43.856;1.926;2022-10-03T19:31:15;15.70;99.90
70267;DHT22;57676;43.856;1.926;2022-10-03T19:33:49;15.60;99.90
70267;DHT22;57676;43.856;1.926;2022-10-03T19:36:16;15.50;99.90
70267;DHT22;57676;43.856;1.926;2022-10-03T19:38:46;15.40;99.90
70267;DHT22;57676;43.856;1.926;2022-10-03T19:44:16;15.50;99.90
70267;DHT22;57676;43.856;1.926;2022-10-03T19:47:08;15.30;99.90
70267;DHT22;57676;43.856;1.926;2022-10-03T19:50:02;15.30;99.90
70267;DHT22;57676;43.856;1.926;2022-10-03T19:52:31;15.30;99.90
70267;DHT22;57676;43.856;1.926;2022-10-03T19:58:16;15.20;99.90
70267;DHT22;57676;43.856;1.926;2022-10-03T20:01:03;15.20;99.90
70267;DHT22;57676;43.856;1.926;2022-10-03T20:03:38;15.20;99.90
70267;DHT22;57676;43.856;1.926;2022-10-03T20:08:59;15.20;99.90
70267;DHT22;57676;43.856;1.926;2022-10-03T20:14:24;15.20;99.90
70267;DHT22;57676;43.856;1.926;2022-10-03T20:16:56;15.10;99.90
70267;DHT22;57676;43.856;1.926;2022-10-03T20:19:25;15.10;99.90
70267;DHT22;57676;43.856;1.926;2022-10-03T20:21:54;15.20;99.90
70267;DHT22;57676;43.856;1.926;2022-10-03T20:24:31;15.10;99.90
70267;DHT22;57676;43.856;1.926;2022-10-03T20:27:13;15.20;99.90
70267;DHT22;57676;43.856;1.926;2022-10-03T20:30:05;15.20;99.90
70267;DHT22;57676;43.856;1.926;2022-10-03T20:32:34;15.20;99.90
70267;DHT22;57676;43.856;1.926;2022-10-03T20:35:02;15.30;99.90
70267;DHT22;57676;43.856;1.926;2022-10-03T20:40:45;15.00;99.90
70267;DHT22;57676;43.856;1.926;2022-10-03T20:43:34;14.90;99.90
70267;DHT22;57676;43.856;1.926;2022-10-03T20:46:23;14.90;99.90
70267;DHT22;57676;43.856;1.926;2022-10-03T20:49:35;14.80;99.90
70267;DHT22;57676;43.856;1.926;2022-10-03T20:52:02;14.80;99.90
70267;DHT22;57676;43.856;1.926;2022-10-03T20:54:51;14.60;99.90
70267;DHT22;57676;43.856;1.926;2022-10-03T20:57:24;14.60;99.90
70267;DHT22;57676;43.856;1.926;2022-10-03T21:00:06;14.50;99.90
70267;DHT22;57676;43.856;1.926;2022-10-03T21:02:55;14.50;99.90
70267;DHT22;57676;43.856;1.926;2022-10-03T21:05:31;14.50;99.90
70267;DHT22;57676;43.856;1.926;2022-10-03T21:08:03;14.40;99.90
70267;DHT22;57676;43.856;1.926;2022-10-03T21:10:36;14.40;99.90
70267;DHT22;57676;43.856;1.926;2022-10-03T21:13:14;14.30;99.90
70267;DHT22;57676;43.856;1.926;2022-10-03T21:15:46;14.30;99.90
70267;DHT22;57676;43.856;1.926;2022-10-03T21:18:25;14.20;99.90
70267;DHT22;57676;43.856;1.926;2022-10-03T21:21:14;14.10;99.90
70267;DHT22;57676;43.856;1.926;2022-10-03T21:26:32;14.10;99.90
70267;DHT22;57676;43.856;1.926;2022-10-03T21:29:28;14.10;99.90
70267;DHT22;57676;43.856;1.926;2022-10-03T21:43:49;14.00;99.90
70267;DHT22;57676;43.856;1.926;2022-10-03T21:46:24;14.00;99.90
70267;DHT22;57676;43.856;1.926;2022-10-03T21:52:23;13.90;99.90
70267;DHT22;57676;43.856;1.926;2022-10-03T22:04:07;13.80;99.90
70267;DHT22;57676;43.856;1.926;2022-10-03T22:07:08;13.90;99.90
70267;DHT22;57676;43.856;1.926;2022-10-03T22:09:45;13.80;99.90
70267;DHT22;57676;43.856;1.926;2022-10-03T22:12:11;13.80;99.90
70267;DHT22;57676;43.856;1.926;2022-10-03T22:14:48;13.80;99.90
70267;DHT22;57676;43.856;1.926;2022-10-03T22:20:25;13.70;99.90
70267;DHT22;57676;43.856;1.926;2022-10-03T22:26:16;13.70;99.90
70267;DHT22;57676;43.856;1.926;2022-10-03T22:29:09;13.60;99.90
70267;DHT22;57676;43.856;1.926;2022-10-03T22:35:05;13.60;99.90
70267;DHT22;57676;43.856;1.926;2022-10-03T22:37:27;13.40;99.90
70267;DHT22;57676;43.856;1.926;2022-10-03T22:39:57;13.30;99.90
70267;DHT22;57676;43.856;1.926;2022-10-03T22:42:24;13.40;99.90
70267;DHT22;57676;43.856;1.926;2022-10-03T22:44:51;13.30;99.90
70267;DHT22;57676;43.856;1.926;2022-10-03T22:47:25;13.50;99.90
70267;DHT22;57676;43.856;1.926;2022-10-03T22:49:55;13.60;99.90
70267;DHT22;57676;43.856;1.926;2022-10-03T22:52:27;13.70;99.90
70267;DHT22;57676;43.856;1.926;2022-10-03T22:54:55;13.50;99.90
70267;DHT22;57676;43.856;1.926;2022-10-03T22:57:22;13.40;99.90
70267;DHT22;57676;43.856;1.926;2022-10-03T22:59:55;13.40;99.90
70267;DHT22;57676;43.856;1.926;2022-10-03T23:02:30;13.50;99.90
70267;DHT22;57676;43.856;1.926;2022-10-03T23:05:01;13.50;99.90
70267;DHT22;57676;43.856;1.926;2022-10-03T23:10:36;13.50;99.90
70267;DHT22;57676;43.856;1.926;2022-10-03T23:13:27;13.30;99.90
70267;DHT22;57676;43.856;1.926;2022-10-03T23:16:06;13.30;99.90
70267;DHT22;57676;43.856;1.926;2022-10-03T23:18:45;13.20;99.90
70267;DHT22;57676;43.856;1.926;2022-10-03T23:21:13;13.20;99.90
70267;DHT22;57676;43.856;1.926;2022-10-03T23:23:48;13.20;99.90
70267;DHT22;57676;43.856;1.926;2022-10-03T23:29:23;13.10;99.90
70267;DHT22;57676;43.856;1.926;2022-10-03T23:32:08;13.00;99.90
70267;DHT22;57676;43.856;1.926;2022-10-03T23:34:47;12.90;99.90
70267;DHT22;57676;43.856;1.926;2022-10-03T23:37:22;13.10;99.90
70267;DHT22;57676;43.856;1.926;2022-10-03T23:40:16;12.90;99.90
70267;DHT22;57676;43.856;1.926;2022-10-03T23:42:44;12.90;99.90
70267;DHT22;57676;43.856;1.926;2022-10-03T23:45:22;12.90;99.90
70267;DHT22;57676;43.856;1.926;2022-10-03T23:48:09;12.80;99.90
70267;DHT22;57676;43.856;1.926;2022-10-03T23:50:46;12.90;99.90
70267;DHT22;57676;43.856;1.926;2022-10-03T23:53:37;13.00;99.90
70267;DHT22;57676;43.856;1.926;2022-10-03T23:59:07;12.90;99.90
